createdAt,value
2019-02-11T00:02:26.602Z,10.80
2019-02-11T00:05:35.416Z,10.80
2019-02-11T00:08:20.463Z,10.70
2019-02-11T00:11:13.110Z,10.70
2019-02-11T00:14:13.761Z,10.70
2019-02-11T00:17:05.773Z,10.70
2019-02-11T00:19:53.361Z,10.70
2019-02-11T00:22:48.175Z,10.70
2019-02-11T00:29:02.616Z,10.60
2019-02-11T00:31:52.494Z,10.60
2019-02-11T00:34:49.900Z,10.60
2019-02-11T00:37:48.465Z,10.60
2019-02-11T00:40:58.362Z,10.50
2019-02-11T00:44:14.270Z,10.50
2019-02-11T00:47:09.337Z,10.50
2019-02-11T00:50:04.467Z,10.50
2019-02-11T00:52:58.004Z,10.40
2019-02-11T00:55:49.313Z,10.40
2019-02-11T00:58:44.506Z,10.40
2019-02-11T01:01:21.820Z,10.40
2019-02-11T02:24:25.372Z,10.10
2019-02-11T02:28:19.788Z,10.20
2019-02-11T03:06:09.964Z,10.40
2019-02-11T03:29:42.508Z,10.30
2019-02-11T09:13:17.470Z,9.10
2019-02-11T09:31:57.419Z,9.20
2019-02-11T10:07:02.363Z,9.20
2019-02-11T10:18:59.537Z,9.30
2019-02-11T10:26:07.642Z,9.30
2019-02-11T10:44:51.745Z,9.70
2019-02-11T11:27:57.095Z,10.10
2019-02-11T11:30:56.621Z,10.20
2019-02-11T11:33:48.176Z,10.20
2019-02-11T11:36:53.977Z,10.20
2019-02-11T11:39:48.994Z,10.30
2019-02-11T11:42:37.861Z,10.40
2019-02-11T11:45:36.841Z,10.50
2019-02-11T11:48:28.960Z,10.50
2019-02-11T11:51:14.181Z,10.60
2019-02-11T11:53:57.787Z,10.60
2019-02-11T11:56:36.019Z,10.60
2019-02-11T11:59:19.297Z,10.70
2019-02-11T12:01:59.991Z,10.70
2019-02-11T12:04:35.582Z,10.70
2019-02-11T12:07:16.350Z,10.70
2019-02-11T12:09:55.236Z,10.70
2019-02-11T12:12:32.050Z,10.70
2019-02-11T12:15:08.753Z,10.60
2019-02-11T12:17:51.529Z,10.60
2019-02-11T12:20:34.732Z,10.60
2019-02-11T12:23:12.301Z,10.60
2019-02-11T12:25:50.653Z,10.60
2019-02-11T12:28:26.145Z,10.60
2019-02-11T12:31:04.429Z,10.60
2019-02-11T12:33:50.222Z,10.60
2019-02-11T12:36:28.445Z,10.50
2019-02-11T12:39:05.456Z,10.50
2019-02-11T12:41:46.281Z,10.50
2019-02-11T12:44:21.633Z,10.50
2019-02-11T12:47:13.372Z,10.60
2019-02-11T12:49:37.677Z,10.50
2019-02-11T12:52:12.877Z,10.50
2019-02-11T12:54:48.630Z,10.60
2019-02-11T12:57:24.181Z,10.60
2019-02-11T12:59:59.502Z,10.60
2019-02-11T13:06:34.545Z,10.70
2019-02-11T13:10:01.249Z,10.70
2019-02-11T13:12:57.718Z,10.70
2019-02-11T13:16:00.912Z,10.70
2019-02-11T13:19:42.058Z,10.70
2019-02-11T13:22:27.996Z,10.70
2019-02-11T13:28:25.352Z,10.60
2019-02-11T13:31:34.157Z,10.50
2019-02-11T16:03:50.375Z,9.40
2019-02-11T16:09:58.088Z,9.40
2019-02-11T16:12:55.665Z,9.50
2019-02-11T16:16:45.169Z,9.50
2019-02-11T16:19:03.550Z,9.20
2019-02-11T16:25:31.777Z,9.40
2019-02-11T16:28:21.271Z,9.40
2019-02-11T16:31:35.813Z,9.50
2019-02-11T16:34:26.381Z,9.50
2019-02-11T16:40:49.742Z,9.50
2019-02-11T16:43:29.858Z,9.50
2019-02-11T16:46:25.953Z,9.50
2019-02-11T16:49:01.411Z,9.50
2019-02-11T16:51:36.742Z,9.50
2019-02-11T16:54:23.539Z,9.50
2019-02-11T16:57:04.701Z,9.50
2019-02-11T17:00:05.596Z,9.50
2019-02-11T17:02:42.700Z,9.50
2019-02-11T17:05:22.318Z,9.50
2019-02-11T17:07:59.586Z,9.60
2019-02-11T17:10:35.409Z,9.50
2019-02-11T17:13:12.632Z,9.60
2019-02-11T17:15:51.971Z,9.60
2019-02-11T17:18:30.343Z,9.60
2019-02-11T17:21:05.671Z,9.60
2019-02-11T17:23:42.677Z,9.60
2019-02-11T17:26:20.953Z,9.60
2019-02-11T17:29:05.141Z,9.60
2019-02-11T17:31:42.003Z,9.60
2019-02-11T17:34:19.928Z,9.60
2019-02-11T17:37:03.053Z,9.60
2019-02-11T17:40:11.817Z,9.60
2019-02-11T17:43:40.056Z,9.60
2019-02-11T17:46:28.220Z,9.60
2019-02-11T17:49:17.761Z,9.60
2019-02-11T17:57:25.686Z,9.60
2019-02-11T18:43:48.966Z,9.40
2019-02-11T18:58:57.775Z,9.30
2019-02-11T19:02:55.210Z,9.30
2019-02-11T19:05:53.447Z,9.30
2019-02-11T19:08:56.555Z,9.30
2019-02-11T19:12:22.406Z,9.30
2019-02-11T19:15:07.930Z,9.30
2019-02-11T19:18:03.463Z,9.30
2019-02-11T19:20:41.139Z,9.30
2019-02-11T19:23:24.586Z,9.40
2019-02-11T19:27:01.951Z,9.40
2019-02-11T19:30:14.488Z,9.40
2019-02-11T19:33:05.406Z,9.40
2019-02-11T19:36:43.050Z,9.40
2019-02-11T19:43:49.756Z,9.40
2019-02-11T19:46:43.186Z,9.40
2019-02-11T19:49:59.181Z,9.40
2019-02-11T19:52:41.962Z,9.30
2019-02-11T19:55:36.709Z,9.30
2019-02-11T19:58:38.379Z,9.30
2019-02-11T20:01:34.475Z,9.30
2019-02-11T20:04:17.929Z,9.30
2019-02-11T20:10:40.076Z,9.30
2019-02-11T20:17:59.593Z,9.30
2019-02-11T20:20:48.476Z,9.30
2019-02-11T20:23:25.614Z,9.30
2019-02-11T20:26:58.474Z,9.30
2019-02-11T20:30:39.077Z,9.20
2019-02-11T20:33:56.426Z,9.20
2019-02-11T20:36:35.127Z,9.20
2019-02-11T20:39:13.155Z,9.10
2019-02-11T20:41:52.461Z,9.00
2019-02-11T20:44:30.678Z,9.00
2019-02-11T20:47:05.986Z,8.90
2019-02-11T20:49:47.955Z,8.90
2019-02-11T20:52:31.581Z,8.80
2019-02-11T20:55:14.933Z,8.80
2019-02-11T20:57:58.714Z,8.80
2019-02-11T21:00:44.382Z,8.70
2019-02-11T21:03:56.204Z,8.70
2019-02-11T21:46:14.063Z,8.40
2019-02-11T21:49:32.937Z,8.60
2019-02-11T21:57:17.113Z,8.60
2019-02-11T22:22:57.857Z,8.50
2019-02-11T22:34:27.077Z,8.40
2019-02-11T22:38:19.688Z,8.40
2019-02-11T22:41:14.574Z,8.40
2019-02-11T22:44:38.940Z,8.40
2019-02-11T22:47:34.823Z,8.40
2019-02-11T23:06:46.962Z,8.30
2019-02-11T23:30:03.620Z,8.30
